Safi, Morocco

5:52 PM WET on November 22, 2014 (GMT +0000)
Mogador | Change Station
CLOSE
Current Station
Airport
Location: Essaouira,
Elevation: 26 ft
Nearby Weather Stations

Elev 26 ft 31.52 °N, 9.78 °W | Updated 52 minutes ago

Light Rain
Light Rain
63 °F
Feels Like 63 °F
N
23
Wind Variable Wind from South
Gusts 44 mph

Today
High -- | Low -- °F
--% Chance of Precip.
Yesterday
High -- | Low -- °F
Precip. -- in
7:12 AM 5:33 PM
New Moon, 0% visible
Pressure 29.68 in
Visibility 1.9 miles
Clouds Scattered Clouds 1000 ft
Scattered Clouds 3000 ft
Mostly Cloudy 6000 ft
Dew Point 52 °F
Humidity 68%
Rainfall 0.00 in
Snow Depth Not available.
UV 0 out of 12
Pollen Not available.
Air Quality Not available.
Flu Activity Not available.
METAR GMMI 221700Z 18020G38KT 3000 -RA SCT010 SCT030TCU BKN060 17/11 Q1005 TEMPO RA

More Conditions Fewer Conditions

Pressure 29.68 in
Visibility 1.9 miles
Clouds Scattered Clouds 1000 ft
Scattered Clouds 3000 ft
Mostly Cloudy 6000 ft
Dew Point 52 °F
Humidity 68%
Rainfall 0.00 in
Snow Depth Not available.
UV 0 out of 12
Pollen Not available.
Air Quality Not available.
Flu Activity Not available.
METAR GMMI 221700Z 18020G38KT 3000 -RA SCT010 SCT030TCU BKN060 17/11 Q1005 TEMPO RA

More Conditions Fewer Conditions

10-Day Weather Forecast

Almanac

Astronomy

Nov. 22, 2014 Rise Set
Actual Time
Civil Twilight
Nautical Twilight
Astronomical Twilight
Moon
Length of Visible Light
Length of Day
Tomorrow will be .
, % of the Moon is Illuminated

Today's Extremes

Country Highs Country Lows

Community

WunderPhotos

Upload Photos

1,772,868 photos uploaded!

WunderBlogs® & News

Nearby

Air Quality

  Air Quality AQ Index Pollutant
Not available.

Snow Depth

Station Depth Elevation

Earthquake Activity

City Distance Mag. Time & Date
Minimum magnitude displayed is 2.5.

Coastal Water Temperatures

Place Temperature

Nearby Weather Stations